sensor_id;sensor_type;location;lat;lon;timestamp;P1;durP1;ratioP1;P2;durP2;ratioP2
56997;SDS011;42890;44.244;22.530;2023-06-26T00:01:26;7.20;;;4.60;;
56997;SDS011;42890;44.244;22.530;2023-06-26T00:03:59;5.32;;;4.63;;
56997;SDS011;42890;44.244;22.530;2023-06-26T00:06:26;9.95;;;4.95;;
56997;SDS011;42890;44.244;22.530;2023-06-26T00:08:54;6.38;;;4.45;;
56997;SDS011;42890;44.244;22.530;2023-06-26T00:11:21;6.97;;;4.57;;
56997;SDS011;42890;44.244;22.530;2023-06-26T00:13:47;6.47;;;4.85;;
56997;SDS011;42890;44.244;22.530;2023-06-26T00:16:13;7.05;;;5.07;;
56997;SDS011;42890;44.244;22.530;2023-06-26T00:18:40;6.60;;;5.40;;
56997;SDS011;42890;44.244;22.530;2023-06-26T00:21:06;5.82;;;4.97;;
56997;SDS011;42890;44.244;22.530;2023-06-26T00:23:32;6.90;;;4.95;;
56997;SDS011;42890;44.244;22.530;2023-06-26T00:26:02;5.65;;;5.00;;
56997;SDS011;42890;44.244;22.530;2023-06-26T00:28:28;8.57;;;4.82;;
56997;SDS011;42890;44.244;22.530;2023-06-26T00:30:54;6.47;;;5.30;;
56997;SDS011;42890;44.244;22.530;2023-06-26T00:33:20;7.50;;;4.93;;
56997;SDS011;42890;44.244;22.530;2023-06-26T00:35:47;5.65;;;4.82;;
56997;SDS011;42890;44.244;22.530;2023-06-26T00:38:13;7.22;;;5.15;;
56997;SDS011;42890;44.244;22.530;2023-06-26T00:40:39;7.13;;;5.47;;
56997;SDS011;42890;44.244;22.530;2023-06-26T00:43:05;7.50;;;5.80;;
56997;SDS011;42890;44.244;22.530;2023-06-26T00:45:31;6.22;;;5.40;;
56997;SDS011;42890;44.244;22.530;2023-06-26T00:47:57;8.43;;;5.57;;
56997;SDS011;42890;44.244;22.530;2023-06-26T00:50:23;7.15;;;5.20;;
56997;SDS011;42890;44.244;22.530;2023-06-26T00:52:50;6.78;;;5.40;;
56997;SDS011;42890;44.244;22.530;2023-06-26T00:55:16;6.05;;;5.45;;
56997;SDS011;42890;44.244;22.530;2023-06-26T00:57:42;5.70;;;5.20;;
56997;SDS011;42890;44.244;22.530;2023-06-26T01:00:10;9.32;;;5.68;;
56997;SDS011;42890;44.244;22.530;2023-06-26T01:02:37;7.13;;;5.20;;
56997;SDS011;42890;44.244;22.530;2023-06-26T01:05:04;6.78;;;5.50;;
56997;SDS011;42890;44.244;22.530;2023-06-26T01:07:32;6.80;;;5.38;;
56997;SDS011;42890;44.244;22.530;2023-06-26T01:10:02;6.43;;;5.70;;
56997;SDS011;42890;44.244;22.530;2023-06-26T01:12:29;5.30;;;4.82;;
56997;SDS011;42890;44.244;22.530;2023-06-26T01:14:56;6.60;;;5.32;;
56997;SDS011;42890;44.244;22.530;2023-06-26T01:17:22;7.10;;;5.18;;
56997;SDS011;42890;44.244;22.530;2023-06-26T01:19:49;6.78;;;5.70;;
56997;SDS011;42890;44.244;22.530;2023-06-26T01:24:44;6.22;;;5.72;;
56997;SDS011;42890;44.244;22.530;2023-06-26T01:27:12;6.18;;;5.43;;
56997;SDS011;42890;44.244;22.530;2023-06-26T01:29:39;10.45;;;5.82;;
56997;SDS011;42890;44.244;22.530;2023-06-26T01:32:06;8.52;;;5.80;;
56997;SDS011;42890;44.244;22.530;2023-06-26T01:34:32;7.47;;;5.70;;
56997;SDS011;42890;44.244;22.530;2023-06-26T01:36:58;6.07;;;5.47;;
56997;SDS011;42890;44.244;22.530;2023-06-26T01:39:25;7.43;;;5.70;;
56997;SDS011;42890;44.244;22.530;2023-06-26T01:41:51;13.40;;;6.32;;
56997;SDS011;42890;44.244;22.530;2023-06-26T01:46:49;5.97;;;5.38;;
56997;SDS011;42890;44.244;22.530;2023-06-26T01:49:21;6.28;;;5.65;;
56997;SDS011;42890;44.244;22.530;2023-06-26T01:51:51;6.32;;;5.75;;
56997;SDS011;42890;44.244;22.530;2023-06-26T01:54:21;7.03;;;5.95;;
56997;SDS011;42890;44.244;22.530;2023-06-26T01:56:49;7.93;;;6.60;;
56997;SDS011;42890;44.244;22.530;2023-06-26T01:59:15;8.25;;;6.38;;
56997;SDS011;42890;44.244;22.530;2023-06-26T02:01:43;10.25;;;6.13;;
56997;SDS011;42890;44.244;22.530;2023-06-26T02:04:09;8.00;;;6.38;;
56997;SDS011;42890;44.244;22.530;2023-06-26T02:06:36;7.85;;;6.53;;
56997;SDS011;42890;44.244;22.530;2023-06-26T02:09:02;6.88;;;6.07;;
56997;SDS011;42890;44.244;22.530;2023-06-26T02:11:28;6.82;;;6.10;;
56997;SDS011;42890;44.244;22.530;2023-06-26T02:13:55;6.60;;;5.88;;
56997;SDS011;42890;44.244;22.530;2023-06-26T02:16:21;8.38;;;5.72;;
56997;SDS011;42890;44.244;22.530;2023-06-26T02:18:48;7.75;;;6.00;;
56997;SDS011;42890;44.244;22.530;2023-06-26T02:21:14;11.43;;;6.15;;
56997;SDS011;42890;44.244;22.530;2023-06-26T02:23:41;8.05;;;6.78;;
56997;SDS011;42890;44.244;22.530;2023-06-26T02:26:07;7.35;;;6.03;;
56997;SDS011;42890;44.244;22.530;2023-06-26T02:28:33;9.45;;;5.85;;
56997;SDS011;42890;44.244;22.530;2023-06-26T02:30:59;6.47;;;5.70;;
56997;SDS011;42890;44.244;22.530;2023-06-26T02:33:25;8.70;;;6.07;;
56997;SDS011;42890;44.244;22.530;2023-06-26T02:35:52;8.55;;;6.55;;
56997;SDS011;42890;44.244;22.530;2023-06-26T02:38:18;7.72;;;5.85;;
56997;SDS011;42890;44.244;22.530;2023-06-26T02:40:44;6.40;;;5.80;;
56997;SDS011;42890;44.244;22.530;2023-06-26T02:43:10;7.97;;;6.32;;
56997;SDS011;42890;44.244;22.530;2023-06-26T02:45:36;8.30;;;6.00;;
56997;SDS011;42890;44.244;22.530;2023-06-26T02:48:02;8.23;;;5.97;;
56997;SDS011;42890;44.244;22.530;2023-06-26T02:50:29;7.95;;;5.57;;
56997;SDS011;42890;44.244;22.530;2023-06-26T02:52:55;6.13;;;5.53;;
56997;SDS011;42890;44.244;22.530;2023-06-26T02:55:21;8.27;;;5.55;;
56997;SDS011;42890;44.244;22.530;2023-06-26T02:57:47;7.88;;;5.82;;
56997;SDS011;42890;44.244;22.530;2023-06-26T03:00:13;7.82;;;5.05;;
56997;SDS011;42890;44.244;22.530;2023-06-26T03:02:40;6.78;;;5.85;;
56997;SDS011;42890;44.244;22.530;2023-06-26T03:05:06;6.38;;;5.45;;
56997;SDS011;42890;44.244;22.530;2023-06-26T03:07:33;5.55;;;5.05;;
56997;SDS011;42890;44.244;22.530;2023-06-26T03:09:59;6.22;;;4.95;;
56997;SDS011;42890;44.244;22.530;2023-06-26T03:12:25;6.72;;;5.38;;
56997;SDS011;42890;44.244;22.530;2023-06-26T03:14:51;5.35;;;4.85;;
56997;SDS011;42890;44.244;22.530;2023-06-26T03:17:17;8.82;;;5.40;;
56997;SDS011;42890;44.244;22.530;2023-06-26T03:19:44;5.85;;;5.25;;
56997;SDS011;42890;44.244;22.530;2023-06-26T03:22:10;7.00;;;5.60;;
56997;SDS011;42890;44.244;22.530;2023-06-26T03:24:36;6.93;;;5.45;;
56997;SDS011;42890;44.244;22.530;2023-06-26T03:27:02;5.40;;;4.90;;
56997;SDS011;42890;44.244;22.530;2023-06-26T03:29:28;7.00;;;5.35;;
56997;SDS011;42890;44.244;22.530;2023-06-26T03:31:55;5.95;;;5.30;;
56997;SDS011;42890;44.244;22.530;2023-06-26T03:34:21;9.38;;;4.95;;
56997;SDS011;42890;44.244;22.530;2023-06-26T03:36:47;6.47;;;5.22;;
56997;SDS011;42890;44.244;22.530;2023-06-26T03:39:13;6.60;;;5.10;;
56997;SDS011;42890;44.244;22.530;2023-06-26T03:41:40;6.93;;;5.40;;
56997;SDS011;42890;44.244;22.530;2023-06-26T03:44:06;6.57;;;4.90;;
56997;SDS011;42890;44.244;22.530;2023-06-26T03:46:32;8.60;;;5.25;;
56997;SDS011;42890;44.244;22.530;2023-06-26T03:48:58;6.05;;;5.03;;
56997;SDS011;42890;44.244;22.530;2023-06-26T03:51:24;5.30;;;4.80;;
56997;SDS011;42890;44.244;22.530;2023-06-26T03:53:50;9.57;;;5.10;;
56997;SDS011;42890;44.244;22.530;2023-06-26T03:56:16;5.82;;;5.25;;
56997;SDS011;42890;44.244;22.530;2023-06-26T03:58:42;14.80;;;5.15;;
56997;SDS011;42890;44.244;22.530;2023-06-26T04:01:08;5.50;;;5.00;;
56997;SDS011;42890;44.244;22.530;2023-06-26T04:03:35;8.23;;;5.03;;
56997;SDS011;42890;44.244;22.530;2023-06-26T04:06:01;6.00;;;5.38;;
56997;SDS011;42890;44.244;22.530;2023-06-26T04:08:27;6.63;;;5.55;;
56997;SDS011;42890;44.244;22.530;2023-06-26T04:10:53;6.13;;;5.63;;
56997;SDS011;42890;44.244;22.530;2023-06-26T04:13:22;6.00;;;5.40;;
56997;SDS011;42890;44.244;22.530;2023-06-26T04:15:48;6.75;;;5.88;;
56997;SDS011;42890;44.244;22.530;2023-06-26T04:18:14;6.10;;;5.50;;
56997;SDS011;42890;44.244;22.530;2023-06-26T04:20:41;6.78;;;6.18;;
56997;SDS011;42890;44.244;22.530;2023-06-26T04:23:10;6.32;;;5.70;;
56997;SDS011;42890;44.244;22.530;2023-06-26T04:25:36;6.20;;;5.47;;
56997;SDS011;42890;44.244;22.530;2023-06-26T04:28:02;6.22;;;5.63;;
56997;SDS011;42890;44.244;22.530;2023-06-26T04:30:28;6.38;;;5.78;;
56997;SDS011;42890;44.244;22.530;2023-06-26T04:32:55;8.50;;;6.22;;
56997;SDS011;42890;44.244;22.530;2023-06-26T04:35:23;6.15;;;5.65;;
56997;SDS011;42890;44.244;22.530;2023-06-26T04:37:50;7.05;;;6.25;;
56997;SDS011;42890;44.244;22.530;2023-06-26T04:40:16;7.43;;;5.78;;
56997;SDS011;42890;44.244;22.530;2023-06-26T04:42:42;9.38;;;5.35;;
56997;SDS011;42890;44.244;22.530;2023-06-26T04:45:08;7.05;;;5.68;;
56997;SDS011;42890;44.244;22.530;2023-06-26T04:47:34;6.25;;;5.55;;
56997;SDS011;42890;44.244;22.530;2023-06-26T04:50:00;6.28;;;5.68;;
56997;SDS011;42890;44.244;22.530;2023-06-26T04:52:26;7.10;;;5.20;;
56997;SDS011;42890;44.244;22.530;2023-06-26T04:54:52;6.13;;;5.60;;
56997;SDS011;42890;44.244;22.530;2023-06-26T04:57:18;5.80;;;5.30;;
56997;SDS011;42890;44.244;22.530;2023-06-26T04:59:45;5.55;;;5.05;;
56997;SDS011;42890;44.244;22.530;2023-06-26T05:02:11;8.05;;;5.57;;
56997;SDS011;42890;44.244;22.530;2023-06-26T05:04:39;6.20;;;4.88;;
56997;SDS011;42890;44.244;22.530;2023-06-26T05:07:07;6.72;;;4.93;;
56997;SDS011;42890;44.244;22.530;2023-06-26T05:09:33;6.93;;;4.93;;
56997;SDS011;42890;44.244;22.530;2023-06-26T05:11:59;5.47;;;4.75;;
56997;SDS011;42890;44.244;22.530;2023-06-26T05:14:25;5.72;;;4.72;;
56997;SDS011;42890;44.244;22.530;2023-06-26T05:16:52;4.60;;;4.20;;
56997;SDS011;42890;44.244;22.530;2023-06-26T05:19:18;6.40;;;4.43;;
56997;SDS011;42890;44.244;22.530;2023-06-26T05:21:44;4.63;;;4.25;;
56997;SDS011;42890;44.244;22.530;2023-06-26T05:24:10;4.55;;;4.15;;
56997;SDS011;42890;44.244;22.530;2023-06-26T05:26:39;6.40;;;4.43;;
56997;SDS011;42890;44.244;22.530;2023-06-26T05:29:05;4.68;;;4.28;;
56997;SDS011;42890;44.244;22.530;2023-06-26T05:31:32;4.78;;;4.30;;
56997;SDS011;42890;44.244;22.530;2023-06-26T05:34:00;7.35;;;4.22;;
56997;SDS011;42890;44.244;22.530;2023-06-26T05:36:29;7.05;;;4.55;;
56997;SDS011;42890;44.244;22.530;2023-06-26T05:38:58;5.47;;;4.18;;
56997;SDS011;42890;44.244;22.530;2023-06-26T05:41:24;5.18;;;4.10;;
56997;SDS011;42890;44.244;22.530;2023-06-26T05:43:50;5.47;;;4.25;;
56997;SDS011;42890;44.244;22.530;2023-06-26T05:46:19;4.72;;;4.32;;
56997;SDS011;42890;44.244;22.530;2023-06-26T05:48:45;4.63;;;4.20;;
56997;SDS011;42890;44.244;22.530;2023-06-26T05:51:12;5.22;;;3.97;;
56997;SDS011;42890;44.244;22.530;2023-06-26T05:53:38;5.68;;;4.60;;
56997;SDS011;42890;44.244;22.530;2023-06-26T05:56:05;4.57;;;4.15;;
56997;SDS011;42890;44.244;22.530;2023-06-26T05:58:31;4.60;;;4.00;;
56997;SDS011;42890;44.244;22.530;2023-06-26T06:00:58;4.35;;;3.70;;
56997;SDS011;42890;44.244;22.530;2023-06-26T06:03:24;4.68;;;4.03;;
56997;SDS011;42890;44.244;22.530;2023-06-26T06:05:50;12.15;;;4.10;;
56997;SDS011;42890;44.244;22.530;2023-06-26T06:08:16;5.05;;;4.40;;
56997;SDS011;42890;44.244;22.530;2023-06-26T06:10:42;4.50;;;4.10;;
56997;SDS011;42890;44.244;22.530;2023-06-26T06:13:09;5.28;;;4.40;;
56997;SDS011;42890;44.244;22.530;2023-06-26T06:15:35;5.93;;;3.92;;
56997;SDS011;42890;44.244;22.530;2023-06-26T06:18:01;5.60;;;4.13;;
56997;SDS011;42890;44.244;22.530;2023-06-26T06:20:27;4.15;;;3.75;;
56997;SDS011;42890;44.244;22.530;2023-06-26T06:22:53;3.95;;;3.60;;
56997;SDS011;42890;44.244;22.530;2023-06-26T06:25:19;5.05;;;3.90;;
56997;SDS011;42890;44.244;22.530;2023-06-26T06:27:45;5.00;;;4.55;;
56997;SDS011;42890;44.244;22.530;2023-06-26T06:30:12;4.43;;;4.00;;
56997;SDS011;42890;44.244;22.530;2023-06-26T06:32:38;4.57;;;3.70;;
56997;SDS011;42890;44.244;22.530;2023-06-26T06:35:04;4.60;;;3.90;;
56997;SDS011;42890;44.244;22.530;2023-06-26T06:37:35;6.15;;;4.32;;
56997;SDS011;42890;44.244;22.530;2023-06-26T06:40:01;4.05;;;3.53;;
56997;SDS011;42890;44.244;22.530;2023-06-26T06:42:29;4.72;;;4.10;;
56997;SDS011;42890;44.244;22.530;2023-06-26T06:44:55;6.72;;;4.30;;
56997;SDS011;42890;44.244;22.530;2023-06-26T06:47:21;4.18;;;3.78;;
56997;SDS011;42890;44.244;22.530;2023-06-26T06:49:47;4.32;;;3.92;;
56997;SDS011;42890;44.244;22.530;2023-06-26T06:52:13;4.45;;;4.07;;
56997;SDS011;42890;44.244;22.530;2023-06-26T06:54:52;6.50;;;4.05;;
56997;SDS011;42890;44.244;22.530;2023-06-26T06:57:19;8.98;;;4.10;;
56997;SDS011;42890;44.244;22.530;2023-06-26T06:59:45;5.53;;;4.30;;
56997;SDS011;42890;44.244;22.530;2023-06-26T07:02:13;6.55;;;4.13;;
56997;SDS011;42890;44.244;22.530;2023-06-26T07:04:39;7.38;;;5.05;;
56997;SDS011;42890;44.244;22.530;2023-06-26T07:07:05;5.55;;;3.90;;
56997;SDS011;42890;44.244;22.530;2023-06-26T07:09:31;5.38;;;3.88;;
56997;SDS011;42890;44.244;22.530;2023-06-26T07:11:57;4.20;;;3.80;;
56997;SDS011;42890;44.244;22.530;2023-06-26T07:14:23;6.25;;;4.15;;
56997;SDS011;42890;44.244;22.530;2023-06-26T07:16:49;3.83;;;3.50;;
56997;SDS011;42890;44.244;22.530;2023-06-26T07:19:15;5.35;;;3.53;;
56997;SDS011;42890;44.244;22.530;2023-06-26T07:21:42;4.20;;;3.67;;
56997;SDS011;42890;44.244;22.530;2023-06-26T07:24:09;3.97;;;3.67;;
56997;SDS011;42890;44.244;22.530;2023-06-26T07:26:35;6.65;;;3.78;;
56997;SDS011;42890;44.244;22.530;2023-06-26T07:29:02;6.20;;;3.83;;
56997;SDS011;42890;44.244;22.530;2023-06-26T07:31:28;4.50;;;4.10;;
56997;SDS011;42890;44.244;22.530;2023-06-26T07:33:54;5.72;;;3.92;;
56997;SDS011;42890;44.244;22.530;2023-06-26T07:36:20;4.40;;;3.83;;
56997;SDS011;42890;44.244;22.530;2023-06-26T07:38:46;8.45;;;3.78;;
56997;SDS011;42890;44.244;22.530;2023-06-26T07:41:12;7.32;;;3.70;;
56997;SDS011;42890;44.244;22.530;2023-06-26T07:43:39;4.32;;;3.70;;
56997;SDS011;42890;44.244;22.530;2023-06-26T07:46:05;4.18;;;3.80;;
56997;SDS011;42890;44.244;22.530;2023-06-26T07:48:31;5.75;;;4.28;;
56997;SDS011;42890;44.244;22.530;2023-06-26T07:50:57;4.43;;;4.03;;
56997;SDS011;42890;44.244;22.530;2023-06-26T07:53:23;6.65;;;4.05;;
56997;SDS011;42890;44.244;22.530;2023-06-26T07:55:49;4.07;;;3.67;;
56997;SDS011;42890;44.244;22.530;2023-06-26T07:58:16;6.30;;;3.85;;
56997;SDS011;42890;44.244;22.530;2023-06-26T08:00:42;4.68;;;4.28;;
56997;SDS011;42890;44.244;22.530;2023-06-26T08:03:08;7.68;;;4.28;;
56997;SDS011;42890;44.244;22.530;2023-06-26T08:05:34;4.05;;;3.75;;
56997;SDS011;42890;44.244;22.530;2023-06-26T08:08:00;4.55;;;4.10;;
56997;SDS011;42890;44.244;22.530;2023-06-26T08:10:27;4.97;;;3.95;;
56997;SDS011;42890;44.244;22.530;2023-06-26T08:12:55;4.50;;;4.10;;
56997;SDS011;42890;44.244;22.530;2023-06-26T08:15:21;8.75;;;3.85;;
56997;SDS011;42890;44.244;22.530;2023-06-26T08:17:47;5.43;;;3.97;;
56997;SDS011;42890;44.244;22.530;2023-06-26T08:20:15;4.05;;;3.75;;
56997;SDS011;42890;44.244;22.530;2023-06-26T08:22:41;5.80;;;3.63;;
56997;SDS011;42890;44.244;22.530;2023-06-26T08:25:08;5.97;;;4.00;;
56997;SDS011;42890;44.244;22.530;2023-06-26T08:27:34;4.35;;;3.75;;
56997;SDS011;42890;44.244;22.530;2023-06-26T08:30:00;5.13;;;4.05;;
56997;SDS011;42890;44.244;22.530;2023-06-26T08:32:26;4.20;;;3.80;;
56997;SDS011;42890;44.244;22.530;2023-06-26T08:34:53;4.30;;;3.90;;
56997;SDS011;42890;44.244;22.530;2023-06-26T08:37:19;4.22;;;3.83;;
56997;SDS011;42890;44.244;22.530;2023-06-26T08:39:45;4.28;;;3.70;;
56997;SDS011;42890;44.244;22.530;2023-06-26T08:42:11;4.72;;;3.88;;
56997;SDS011;42890;44.244;22.530;2023-06-26T08:44:37;4.35;;;3.97;;
56997;SDS011;42890;44.244;22.530;2023-06-26T08:47:03;5.35;;;4.50;;
56997;SDS011;42890;44.244;22.530;2023-06-26T08:52:02;4.38;;;3.97;;
56997;SDS011;42890;44.244;22.530;2023-06-26T08:54:31;5.50;;;4.13;;
56997;SDS011;42890;44.244;22.530;2023-06-26T08:57:00;5.13;;;4.10;;
56997;SDS011;42890;44.244;22.530;2023-06-26T08:59:26;5.35;;;4.22;;
56997;SDS011;42890;44.244;22.530;2023-06-26T09:01:53;7.40;;;3.75;;
56997;SDS011;42890;44.244;22.530;2023-06-26T09:04:19;4.50;;;4.10;;
56997;SDS011;42890;44.244;22.530;2023-06-26T09:06:45;4.65;;;4.25;;
56997;SDS011;42890;44.244;22.530;2023-06-26T09:09:12;4.72;;;4.22;;
56997;SDS011;42890;44.244;22.530;2023-06-26T09:11:38;4.68;;;4.03;;
56997;SDS011;42890;44.244;22.530;2023-06-26T09:14:04;5.53;;;4.13;;
56997;SDS011;42890;44.244;22.530;2023-06-26T09:16:32;7.13;;;3.63;;
56997;SDS011;42890;44.244;22.530;2023-06-26T09:19:08;4.85;;;3.85;;
56997;SDS011;42890;44.244;22.530;2023-06-26T09:21:35;5.00;;;3.90;;
56997;SDS011;42890;44.244;22.530;2023-06-26T09:24:01;4.45;;;4.05;;
56997;SDS011;42890;44.244;22.530;2023-06-26T09:26:27;4.30;;;3.90;;
56997;SDS011;42890;44.244;22.530;2023-06-26T09:28:53;5.55;;;3.90;;
56997;SDS011;42890;44.244;22.530;2023-06-26T09:31:20;5.07;;;4.05;;
56997;SDS011;42890;44.244;22.530;2023-06-26T09:33:46;4.30;;;3.90;;
56997;SDS011;42890;44.244;22.530;2023-06-26T09:36:20;6.18;;;3.90;;
56997;SDS011;42890;44.244;22.530;2023-06-26T09:38:50;5.50;;;3.90;;
56997;SDS011;42890;44.244;22.530;2023-06-26T09:41:16;6.68;;;3.55;;
56997;SDS011;42890;44.244;22.530;2023-06-26T09:43:46;4.93;;;3.72;;
56997;SDS011;42890;44.244;22.530;2023-06-26T09:46:16;5.60;;;3.70;;
56997;SDS011;42890;44.244;22.530;2023-06-26T09:48:43;5.13;;;3.80;;
56997;SDS011;42890;44.244;22.530;2023-06-26T09:51:09;4.20;;;3.42;;
56997;SDS011;42890;44.244;22.530;2023-06-26T09:53:36;4.18;;;3.78;;
56997;SDS011;42890;44.244;22.530;2023-06-26T09:56:06;4.80;;;3.55;;
56997;SDS011;42890;44.244;22.530;2023-06-26T09:58:32;4.80;;;3.70;;
56997;SDS011;42890;44.244;22.530;2023-06-26T10:00:58;3.42;;;3.10;;
56997;SDS011;42890;44.244;22.530;2023-06-26T10:03:25;4.50;;;3.28;;
56997;SDS011;42890;44.244;22.530;2023-06-26T10:05:52;5.20;;;3.67;;
56997;SDS011;42890;44.244;22.530;2023-06-26T10:08:18;5.32;;;3.70;;
56997;SDS011;42890;44.244;22.530;2023-06-26T10:10:44;3.42;;;3.10;;
56997;SDS011;42890;44.244;22.530;2023-06-26T10:13:16;3.58;;;3.25;;
56997;SDS011;42890;44.244;22.530;2023-06-26T10:15:44;4.97;;;3.60;;
56997;SDS011;42890;44.244;22.530;2023-06-26T10:18:11;4.15;;;3.50;;
56997;SDS011;42890;44.244;22.530;2023-06-26T10:20:38;3.88;;;3.00;;
56997;SDS011;42890;44.244;22.530;2023-06-26T10:23:04;3.80;;;3.50;;
56997;SDS011;42890;44.244;22.530;2023-06-26T10:25:32;3.90;;;3.05;;
56997;SDS011;42890;44.244;22.530;2023-06-26T10:27:58;3.90;;;3.50;;
56997;SDS011;42890;44.244;22.530;2023-06-26T10:30:26;3.53;;;3.28;;
56997;SDS011;42890;44.244;22.530;2023-06-26T10:32:53;5.88;;;3.42;;
56997;SDS011;42890;44.244;22.530;2023-06-26T10:35:20;3.30;;;3.00;;
56997;SDS011;42890;44.244;22.530;2023-06-26T10:37:47;3.72;;;3.42;;
56997;SDS011;42890;44.244;22.530;2023-06-26T10:40:14;3.33;;;3.00;;
56997;SDS011;42890;44.244;22.530;2023-06-26T10:42:40;5.50;;;3.95;;
56997;SDS011;42890;44.244;22.530;2023-06-26T10:47:39;3.90;;;3.08;;
56997;SDS011;42890;44.244;22.530;2023-06-26T10:50:25;6.60;;;3.40;;
56997;SDS011;42890;44.244;22.530;2023-06-26T10:53:36;7.45;;;3.10;;
56997;SDS011;42890;44.244;22.530;2023-06-26T10:55:42;3.83;;;2.95;;
56997;SDS011;42890;44.244;22.530;2023-06-26T11:03:44;4.22;;;2.80;;
56997;SDS011;42890;44.244;22.530;2023-06-26T11:06:11;3.00;;;2.78;;
56997;SDS011;42890;44.244;22.530;2023-06-26T11:08:44;3.65;;;2.70;;
56997;SDS011;42890;44.244;22.530;2023-06-26T11:11:12;2.75;;;2.55;;
56997;SDS011;42890;44.244;22.530;2023-06-26T11:13:39;3.22;;;2.92;;
56997;SDS011;42890;44.244;22.530;2023-06-26T11:16:05;3.10;;;2.65;;
56997;SDS011;42890;44.244;22.530;2023-06-26T11:18:31;3.33;;;3.00;;
56997;SDS011;42890;44.244;22.530;2023-06-26T11:21:07;3.10;;;2.80;;
56997;SDS011;42890;44.244;22.530;2023-06-26T11:23:34;4.18;;;2.95;;
56997;SDS011;42890;44.244;22.530;2023-06-26T11:26:13;6.35;;;2.88;;
56997;SDS011;42890;44.244;22.530;2023-06-26T11:28:45;2.97;;;2.70;;
56997;SDS011;42890;44.244;22.530;2023-06-26T11:31:23;4.43;;;3.17;;
56997;SDS011;42890;44.244;22.530;2023-06-26T11:33:49;4.40;;;2.83;;
56997;SDS011;42890;44.244;22.530;2023-06-26T11:36:15;3.80;;;2.90;;
56997;SDS011;42890;44.244;22.530;2023-06-26T11:38:41;3.13;;;2.80;;
56997;SDS011;42890;44.244;22.530;2023-06-26T11:41:08;4.53;;;3.00;;
56997;SDS011;42890;44.244;22.530;2023-06-26T11:43:34;3.28;;;2.90;;
56997;SDS011;42890;44.244;22.530;2023-06-26T11:46:00;5.03;;;2.95;;
56997;SDS011;42890;44.244;22.530;2023-06-26T11:48:32;3.90;;;2.75;;
56997;SDS011;42890;44.244;22.530;2023-06-26T11:50:58;4.10;;;2.95;;
56997;SDS011;42890;44.244;22.530;2023-06-26T11:53:25;5.75;;;3.58;;
56997;SDS011;42890;44.244;22.530;2023-06-26T11:55:51;3.97;;;3.25;;
56997;SDS011;42890;44.244;22.530;2023-06-26T11:58:17;3.65;;;3.05;;
56997;SDS011;42890;44.244;22.530;2023-06-26T12:00:43;5.47;;;3.13;;
56997;SDS011;42890;44.244;22.530;2023-06-26T12:03:10;4.10;;;3.45;;
56997;SDS011;42890;44.244;22.530;2023-06-26T12:05:36;6.35;;;3.00;;
56997;SDS011;42890;44.244;22.530;2023-06-26T12:08:02;3.30;;;3.00;;
56997;SDS011;42890;44.244;22.530;2023-06-26T12:10:31;2.63;;;2.42;;
56997;SDS011;42890;44.244;22.530;2023-06-26T12:12:58;4.88;;;2.83;;
56997;SDS011;42890;44.244;22.530;2023-06-26T12:15:26;3.38;;;3.05;;
56997;SDS011;42890;44.244;22.530;2023-06-26T12:17:53;3.92;;;3.25;;
56997;SDS011;42890;44.244;22.530;2023-06-26T12:20:20;4.28;;;3.38;;
56997;SDS011;42890;44.244;22.530;2023-06-26T12:22:47;4.07;;;3.35;;
56997;SDS011;42890;44.244;22.530;2023-06-26T12:25:13;3.55;;;3.00;;
56997;SDS011;42890;44.244;22.530;2023-06-26T12:27:40;3.63;;;3.25;;
56997;SDS011;42890;44.244;22.530;2023-06-26T12:30:06;3.53;;;3.22;;
56997;SDS011;42890;44.244;22.530;2023-06-26T12:32:34;6.18;;;3.72;;
56997;SDS011;42890;44.244;22.530;2023-06-26T12:35:00;3.83;;;3.20;;
56997;SDS011;42890;44.244;22.530;2023-06-26T12:37:27;5.35;;;3.13;;
56997;SDS011;42890;44.244;22.530;2023-06-26T12:39:54;3.35;;;2.90;;
56997;SDS011;42890;44.244;22.530;2023-06-26T12:42:21;3.67;;;3.05;;
56997;SDS011;42890;44.244;22.530;2023-06-26T12:44:48;5.13;;;3.35;;
56997;SDS011;42890;44.244;22.530;2023-06-26T12:47:15;4.57;;;3.10;;
56997;SDS011;42890;44.244;22.530;2023-06-26T12:49:43;3.25;;;2.95;;
56997;SDS011;42890;44.244;22.530;2023-06-26T12:52:14;2.95;;;2.70;;
56997;SDS011;42890;44.244;22.530;2023-06-26T12:54:41;3.65;;;2.85;;
56997;SDS011;42890;44.244;22.530;2023-06-26T12:57:08;5.65;;;3.40;;
56997;SDS011;42890;44.244;22.530;2023-06-26T12:59:38;5.78;;;3.53;;
56997;SDS011;42890;44.244;22.530;2023-06-26T13:02:04;4.10;;;3.75;;
56997;SDS011;42890;44.244;22.530;2023-06-26T13:04:30;4.35;;;3.70;;
56997;SDS011;42890;44.244;22.530;2023-06-26T13:06:57;3.40;;;3.13;;
56997;SDS011;42890;44.244;22.530;2023-06-26T13:09:24;4.85;;;3.58;;
56997;SDS011;42890;44.244;22.530;2023-06-26T13:11:53;3.55;;;3.25;;
56997;SDS011;42890;44.244;22.530;2023-06-26T13:14:19;3.78;;;3.28;;
56997;SDS011;42890;44.244;22.530;2023-06-26T13:16:46;3.85;;;3.50;;
56997;SDS011;42890;44.244;22.530;2023-06-26T13:19:12;6.22;;;3.83;;
56997;SDS011;42890;44.244;22.530;2023-06-26T13:21:38;3.90;;;3.55;;
56997;SDS011;42890;44.244;22.530;2023-06-26T13:24:05;6.90;;;4.15;;
56997;SDS011;42890;44.244;22.530;2023-06-26T13:26:31;6.53;;;4.38;;
56997;SDS011;42890;44.244;22.530;2023-06-26T13:28:57;6.28;;;4.55;;
56997;SDS011;42890;44.244;22.530;2023-06-26T13:31:24;4.38;;;3.80;;
56997;SDS011;42890;44.244;22.530;2023-06-26T13:33:50;3.92;;;3.58;;
56997;SDS011;42890;44.244;22.530;2023-06-26T13:36:19;4.00;;;3.60;;
56997;SDS011;42890;44.244;22.530;2023-06-26T13:38:46;6.88;;;3.45;;
56997;SDS011;42890;44.244;22.530;2023-06-26T13:41:15;6.85;;;3.20;;
56997;SDS011;42890;44.244;22.530;2023-06-26T13:43:41;3.75;;;3.40;;
56997;SDS011;42890;44.244;22.530;2023-06-26T13:46:07;4.72;;;3.45;;
56997;SDS011;42890;44.244;22.530;2023-06-26T13:48:33;4.85;;;3.90;;
56997;SDS011;42890;44.244;22.530;2023-06-26T13:51:00;4.95;;;4.00;;
56997;SDS011;42890;44.244;22.530;2023-06-26T13:53:26;4.57;;;4.18;;
56997;SDS011;42890;44.244;22.530;2023-06-26T13:55:52;4.20;;;3.63;;
56997;SDS011;42890;44.244;22.530;2023-06-26T13:58:18;4.28;;;3.75;;
56997;SDS011;42890;44.244;22.530;2023-06-26T14:00:47;4.05;;;3.65;;
56997;SDS011;42890;44.244;22.530;2023-06-26T14:03:13;5.15;;;4.15;;
56997;SDS011;42890;44.244;22.530;2023-06-26T14:05:40;6.38;;;3.60;;
56997;SDS011;42890;44.244;22.530;2023-06-26T14:08:07;3.75;;;3.45;;
56997;SDS011;42890;44.244;22.530;2023-06-26T14:10:33;3.40;;;3.20;;
56997;SDS011;42890;44.244;22.530;2023-06-26T14:13:00;3.47;;;3.17;;
56997;SDS011;42890;44.244;22.530;2023-06-26T14:15:28;4.78;;;3.80;;
56997;SDS011;42890;44.244;22.530;2023-06-26T14:17:54;6.35;;;3.80;;
56997;SDS011;42890;44.244;22.530;2023-06-26T14:20:21;5.47;;;4.13;;
56997;SDS011;42890;44.244;22.530;2023-06-26T14:22:48;4.50;;;3.38;;
56997;SDS011;42890;44.244;22.530;2023-06-26T14:25:14;4.93;;;3.40;;
56997;SDS011;42890;44.244;22.530;2023-06-26T14:27:40;3.83;;;3.42;;
56997;SDS011;42890;44.244;22.530;2023-06-26T14:30:07;3.58;;;3.38;;
56997;SDS011;42890;44.244;22.530;2023-06-26T14:32:33;6.55;;;3.50;;
56997;SDS011;42890;44.244;22.530;2023-06-26T14:35:00;4.70;;;3.50;;
56997;SDS011;42890;44.244;22.530;2023-06-26T14:37:26;3.95;;;3.58;;
56997;SDS011;42890;44.244;22.530;2023-06-26T14:39:52;5.53;;;3.10;;
56997;SDS011;42890;44.244;22.530;2023-06-26T14:42:18;4.63;;;3.42;;
56997;SDS011;42890;44.244;22.530;2023-06-26T14:44:45;5.90;;;3.20;;
56997;SDS011;42890;44.244;22.530;2023-06-26T14:47:18;5.15;;;3.20;;